createdAt,value
2022-07-26T00:00:05.928Z,19.00
2022-07-26T00:02:32.915Z,19.00
2022-07-26T00:04:59.614Z,19.10
2022-07-26T00:07:26.334Z,19.10
2022-07-26T00:10:03.003Z,19.00
2022-07-26T00:12:29.711Z,19.00
2022-07-26T00:14:56.373Z,19.00
2022-07-26T00:17:23.114Z,19.00
2022-07-26T00:19:49.838Z,19.00
2022-07-26T00:22:34.548Z,19.00
2022-07-26T00:25:02.889Z,18.90
2022-07-26T00:27:29.584Z,19.00
2022-07-26T00:29:56.313Z,18.90
2022-07-26T00:32:23.082Z,18.90
2022-07-26T00:34:51.538Z,18.80
2022-07-26T00:37:20.454Z,18.80
2022-07-26T00:39:48.077Z,18.80
2022-07-26T00:42:15.108Z,18.80
2022-07-26T00:44:42.703Z,18.80
2022-07-26T00:47:10.032Z,18.80
2022-07-26T00:49:36.925Z,18.80
2022-07-26T00:52:07.182Z,18.70
2022-07-26T00:54:34.132Z,18.70
2022-07-26T00:57:00.972Z,18.70
2022-07-26T00:59:27.878Z,18.60
2022-07-26T01:01:55.198Z,18.60
2022-07-26T01:04:22.077Z,18.50
2022-07-26T01:06:49.365Z,18.50
2022-07-26T01:09:16.695Z,18.50
2022-07-26T01:11:43.471Z,18.40
2022-07-26T01:14:10.800Z,18.40
2022-07-26T01:16:37.822Z,18.40
2022-07-26T01:19:04.592Z,18.40
2022-07-26T01:21:32.119Z,18.30
2022-07-26T01:23:58.931Z,18.30
2022-07-26T01:26:25.923Z,18.30
2022-07-26T01:28:52.766Z,18.30
2022-07-26T01:31:19.593Z,18.30
2022-07-26T01:33:46.342Z,18.20
2022-07-26T01:36:13.158Z,18.20
2022-07-26T01:38:40.883Z,18.20
2022-07-26T01:41:07.706Z,18.20
2022-07-26T01:43:34.710Z,18.10
2022-07-26T01:46:01.710Z,18.10
2022-07-26T01:48:28.590Z,18.10
2022-07-26T01:50:57.139Z,18.20
2022-07-26T01:53:23.819Z,18.10
2022-07-26T01:55:50.484Z,18.10
2022-07-26T01:58:17.234Z,18.10
2022-07-26T02:00:43.982Z,18.10
2022-07-26T02:03:10.762Z,18.20
2022-07-26T02:05:37.535Z,18.20
2022-07-26T02:08:04.374Z,18.10
2022-07-26T02:10:49.848Z,18.20
2022-07-26T02:13:16.744Z,18.20
2022-07-26T02:15:43.528Z,18.20
2022-07-26T02:18:10.364Z,18.10
2022-07-26T02:20:37.239Z,18.20
2022-07-26T02:23:04.572Z,18.20
2022-07-26T02:25:31.326Z,18.20
2022-07-26T02:27:58.114Z,18.20
2022-07-26T02:30:24.924Z,18.20
2022-07-26T02:32:51.699Z,18.20
2022-07-26T02:35:18.419Z,18.20
2022-07-26T02:37:45.124Z,18.30
2022-07-26T02:40:16.929Z,18.30
2022-07-26T02:42:45.724Z,18.30
2022-07-26T02:45:12.452Z,18.30
2022-07-26T02:47:46.450Z,18.30
2022-07-26T02:50:15.681Z,18.30
2022-07-26T02:52:42.371Z,18.30
2022-07-26T02:55:09.251Z,18.40
2022-07-26T02:57:46.258Z,18.40
2022-07-26T03:00:14.589Z,18.40
2022-07-26T03:02:41.451Z,18.30
2022-07-26T03:05:08.412Z,18.30
2022-07-26T03:07:35.227Z,18.20
2022-07-26T03:10:02.013Z,18.30
2022-07-26T03:12:28.707Z,18.30
2022-07-26T03:14:55.603Z,18.40
2022-07-26T03:17:22.371Z,18.50
2022-07-26T03:19:49.123Z,18.40
2022-07-26T03:22:15.938Z,18.40
2022-07-26T03:24:42.743Z,18.30
2022-07-26T03:27:09.510Z,18.30
2022-07-26T03:29:36.254Z,18.30
2022-07-26T03:32:03.117Z,18.40
2022-07-26T03:34:29.878Z,18.40
2022-07-26T03:36:56.708Z,18.40
2022-07-26T03:39:25.480Z,18.30
2022-07-26T03:41:52.201Z,18.30
2022-07-26T03:44:18.959Z,18.40
2022-07-26T03:46:45.856Z,18.40
2022-07-26T03:49:16.639Z,18.30
2022-07-26T03:51:44.141Z,18.40
2022-07-26T03:54:11.584Z,18.40
2022-07-26T03:56:39.199Z,18.30
2022-07-26T03:59:08.070Z,18.40
2022-07-26T04:01:35.387Z,18.30
2022-07-26T04:04:02.277Z,18.40
2022-07-26T04:06:30.106Z,18.40
2022-07-26T04:08:57.036Z,18.50
2022-07-26T04:11:26.755Z,18.50
2022-07-26T04:13:55.665Z,18.50
2022-07-26T04:16:22.742Z,18.50
2022-07-26T04:18:49.617Z,18.60
2022-07-26T04:21:16.469Z,18.50
2022-07-26T04:23:47.782Z,18.50
2022-07-26T04:26:17.586Z,18.40
2022-07-26T04:28:44.373Z,18.40
2022-07-26T04:31:11.152Z,18.30
2022-07-26T04:33:37.951Z,18.30
2022-07-26T04:36:05.010Z,18.30
2022-07-26T04:38:31.925Z,18.30
2022-07-26T04:40:58.761Z,18.20
2022-07-26T04:43:25.583Z,18.20
2022-07-26T04:45:52.485Z,18.20
2022-07-26T04:48:19.295Z,18.20
2022-07-26T04:50:46.170Z,18.20
2022-07-26T04:53:13.019Z,18.20
2022-07-26T04:55:40.616Z,18.20
2022-07-26T04:58:07.945Z,18.20
2022-07-26T05:00:56.542Z,18.30
2022-07-26T05:03:25.048Z,18.30
2022-07-26T05:05:52.308Z,18.50
2022-07-26T05:08:19.053Z,18.60
2022-07-26T05:10:46.074Z,18.80
2022-07-26T05:13:14.335Z,18.70
2022-07-26T05:15:42.834Z,18.70
2022-07-26T05:18:13.476Z,18.70
2022-07-26T05:20:40.686Z,18.70
2022-07-26T05:23:07.443Z,18.60
2022-07-26T05:25:34.343Z,18.50
2022-07-26T05:28:01.242Z,18.60
2022-07-26T05:30:28.097Z,18.80
2022-07-26T05:32:54.925Z,18.70
2022-07-26T05:35:21.697Z,18.80
2022-07-26T05:37:48.441Z,18.90
2022-07-26T05:40:15.276Z,18.90
2022-07-26T05:42:42.232Z,19.00
2022-07-26T05:45:09.384Z,19.10
2022-07-26T05:47:36.333Z,19.20
2022-07-26T05:50:03.904Z,19.30
2022-07-26T05:52:30.608Z,19.40
2022-07-26T05:54:57.390Z,19.40
2022-07-26T05:57:24.201Z,19.30
2022-07-26T05:59:50.948Z,19.20
2022-07-26T06:02:17.843Z,19.20
2022-07-26T06:04:45.546Z,19.10
2022-07-26T06:07:14.733Z,19.10
2022-07-26T06:09:41.586Z,19.20
2022-07-26T06:12:08.435Z,19.30
2022-07-26T06:14:36.217Z,19.60
2022-07-26T06:17:04.437Z,19.50
2022-07-26T06:19:31.518Z,19.40
2022-07-26T06:21:58.639Z,19.50
2022-07-26T06:24:25.545Z,19.60
2022-07-26T06:26:56.847Z,19.70
2022-07-26T06:29:29.533Z,19.80
2022-07-26T06:31:59.627Z,19.90
2022-07-26T06:34:26.529Z,19.80
2022-07-26T06:36:53.330Z,19.60
2022-07-26T06:39:20.281Z,19.60
2022-07-26T06:41:47.174Z,19.70
2022-07-26T06:44:13.904Z,19.60
2022-07-26T06:46:40.653Z,19.50
2022-07-26T06:49:07.633Z,19.40
2022-07-26T06:51:34.648Z,19.30
2022-07-26T06:54:01.674Z,19.30
2022-07-26T06:56:28.478Z,19.20
2022-07-26T06:58:56.389Z,19.10
2022-07-26T07:01:58.775Z,19.00
2022-07-26T07:04:10.699Z,19.10
2022-07-26T07:06:37.841Z,18.90
2022-07-26T07:09:04.921Z,18.50
2022-07-26T07:11:35.097Z,18.30
2022-07-26T07:14:03.350Z,18.20
2022-07-26T07:16:30.361Z,18.20
2022-07-26T07:18:57.261Z,18.20
2022-07-26T07:21:24.029Z,18.20
2022-07-26T07:23:50.766Z,18.10
2022-07-26T07:26:17.540Z,18.10
2022-07-26T07:28:44.286Z,18.00
2022-07-26T07:31:11.840Z,18.20
2022-07-26T07:33:53.044Z,18.20
2022-07-26T07:36:21.241Z,18.40
2022-07-26T07:38:48.592Z,18.30
2022-07-26T07:41:16.330Z,18.20
2022-07-26T07:43:43.053Z,18.10
2022-07-26T07:46:09.859Z,17.90
2022-07-26T07:48:46.681Z,17.70
2022-07-26T07:51:14.473Z,17.70
2022-07-26T07:53:41.218Z,17.60
2022-07-26T07:56:08.141Z,17.70
2022-07-26T07:58:34.875Z,17.70
2022-07-26T08:01:01.909Z,17.80
2022-07-26T08:03:38.832Z,17.90
2022-07-26T08:06:07.035Z,18.00
2022-07-26T08:08:34.218Z,18.00
2022-07-26T08:11:00.994Z,18.10
2022-07-26T08:13:27.991Z,18.20
2022-07-26T08:15:55.892Z,18.40
2022-07-26T08:18:23.386Z,18.50
2022-07-26T08:20:51.820Z,18.50
2022-07-26T08:23:19.349Z,18.60
2022-07-26T08:25:56.339Z,18.70
2022-07-26T08:28:45.652Z,18.70
2022-07-26T08:31:13.437Z,18.90
2022-07-26T08:33:40.929Z,18.90
2022-07-26T08:36:12.786Z,19.00
2022-07-26T08:38:39.555Z,19.00
2022-07-26T08:41:06.405Z,19.00
2022-07-26T08:43:33.149Z,19.00
2022-07-26T08:46:24.689Z,18.90
2022-07-26T08:48:53.327Z,18.90
2022-07-26T08:51:21.469Z,19.00
2022-07-26T08:53:48.419Z,18.90
2022-07-26T08:56:15.092Z,18.30
2022-07-26T08:58:43.507Z,17.80
2022-07-26T09:01:14.617Z,17.50
2022-07-26T09:03:42.066Z,17.30
2022-07-26T09:06:12.486Z,17.20
2022-07-26T09:08:39.291Z,17.20
2022-07-26T09:11:24.295Z,17.10
2022-07-26T09:14:01.356Z,17.10
2022-07-26T09:16:28.592Z,17.10
2022-07-26T09:18:55.581Z,17.10
2022-07-26T09:21:26.150Z,17.00
2022-07-26T09:23:53.163Z,16.90
2022-07-26T09:26:23.368Z,16.90
2022-07-26T09:29:01.632Z,16.90
2022-07-26T09:31:28.437Z,17.00
2022-07-26T09:33:55.304Z,17.20
2022-07-26T09:36:22.390Z,17.50
2022-07-26T09:38:50.293Z,17.70
2022-07-26T09:41:18.615Z,17.70
2022-07-26T09:43:49.066Z,17.80
2022-07-26T09:46:18.537Z,18.00
2022-07-26T09:49:09.286Z,18.00
2022-07-26T09:51:36.809Z,18.10
2022-07-26T09:54:03.714Z,18.30
2022-07-26T09:56:45.221Z,18.50
2022-07-26T09:59:13.316Z,18.60
2022-07-26T10:01:40.179Z,18.70
2022-07-26T10:04:07.912Z,19.00
2022-07-26T10:06:34.789Z,19.20
2022-07-26T10:09:01.732Z,19.30
2022-07-26T10:11:46.190Z,19.40
2022-07-26T10:14:31.907Z,19.40
2022-07-26T10:16:59.149Z,19.40
2022-07-26T10:19:45.529Z,19.60
2022-07-26T10:22:28.411Z,19.60
2022-07-26T10:24:58.216Z,19.50
2022-07-26T10:27:41.628Z,19.50
2022-07-26T10:30:22.452Z,19.80
2022-07-26T10:32:59.832Z,20.00
2022-07-26T10:35:46.122Z,20.20
2022-07-26T10:38:22.199Z,20.20
2022-07-26T10:41:02.263Z,20.10
2022-07-26T10:43:40.751Z,20.30
2022-07-26T10:46:17.764Z,20.20
2022-07-26T10:48:57.913Z,20.10
2022-07-26T10:51:29.510Z,20.00
2022-07-26T10:54:03.630Z,20.00
2022-07-26T10:56:33.389Z,20.20
2022-07-26T10:59:00.904Z,20.40
2022-07-26T11:01:38.188Z,20.30
2022-07-26T11:04:06.043Z,20.20
2022-07-26T11:06:33.159Z,20.10
2022-07-26T11:09:09.523Z,20.20
2022-07-26T11:11:36.279Z,20.30
2022-07-26T11:14:07.309Z,20.20
2022-07-26T11:16:41.474Z,20.30
2022-07-26T11:19:18.519Z,20.70
2022-07-26T11:21:46.148Z,20.90
2022-07-26T11:24:13.283Z,21.10
2022-07-26T11:26:40.744Z,20.80
2022-07-26T11:29:07.586Z,20.90
2022-07-26T11:31:50.864Z,20.80
2022-07-26T11:34:24.640Z,20.80
2022-07-26T11:36:52.329Z,20.90
2022-07-26T11:39:23.338Z,21.10
2022-07-26T11:41:50.567Z,21.20
2022-07-26T11:44:18.262Z,21.20
2022-07-26T11:46:48.655Z,21.10
2022-07-26T11:49:16.691Z,21.10
2022-07-26T11:51:52.615Z,21.20
2022-07-26T11:54:20.068Z,21.30
2022-07-26T11:56:50.631Z,21.30
2022-07-26T11:59:17.450Z,21.30
2022-07-26T12:01:49.663Z,21.50
2022-07-26T12:04:20.712Z,21.40
2022-07-26T12:06:47.972Z,21.10
2022-07-26T12:09:28.374Z,20.60
2022-07-26T12:11:55.612Z,20.00
2022-07-26T12:14:26.073Z,19.70
2022-07-26T12:16:53.428Z,19.60
2022-07-26T12:19:20.224Z,19.30
2022-07-26T12:21:47.964Z,19.20
2022-07-26T12:24:34.069Z,19.10
2022-07-26T12:27:04.519Z,19.00
2022-07-26T12:29:35.671Z,19.00
2022-07-26T12:32:06.634Z,18.90
2022-07-26T12:34:37.755Z,18.90
2022-07-26T12:37:08.664Z,18.90
2022-07-26T12:39:35.890Z,19.10
2022-07-26T12:42:21.486Z,19.30
2022-07-26T12:44:48.304Z,19.50
2022-07-26T12:47:15.102Z,19.70
2022-07-26T12:49:41.906Z,19.90
2022-07-26T12:52:08.597Z,19.90
2022-07-26T12:54:35.290Z,19.80
2022-07-26T12:57:02.070Z,19.90
2022-07-26T12:59:28.756Z,19.90
2022-07-26T13:01:55.506Z,19.90
2022-07-26T13:04:22.588Z,20.10
2022-07-26T13:06:49.468Z,20.20
2022-07-26T13:09:17.102Z,20.20
2022-07-26T13:11:44.141Z,20.40
2022-07-26T13:14:11.404Z,20.60
2022-07-26T13:16:41.043Z,20.70
2022-07-26T13:19:07.968Z,21.00
2022-07-26T13:21:34.708Z,21.10
2022-07-26T13:24:01.793Z,20.90
2022-07-26T13:26:28.895Z,20.80
2022-07-26T13:28:57.457Z,20.50
2022-07-26T13:31:24.279Z,20.30
2022-07-26T13:33:51.221Z,20.10
2022-07-26T13:36:18.009Z,20.00
2022-07-26T13:38:44.807Z,19.90
2022-07-26T13:41:11.752Z,20.00
2022-07-26T13:43:38.548Z,20.00
2022-07-26T13:46:05.443Z,20.10
2022-07-26T13:48:32.454Z,20.20
2022-07-26T13:50:59.214Z,20.30
2022-07-26T13:53:26.062Z,20.20
2022-07-26T13:55:52.955Z,20.20
2022-07-26T13:58:21.512Z,20.20
2022-07-26T14:00:48.846Z,20.00
2022-07-26T14:03:15.994Z,19.80
2022-07-26T14:05:42.763Z,19.80
2022-07-26T14:08:09.559Z,19.80
2022-07-26T14:10:39.672Z,19.70
2022-07-26T14:13:07.399Z,19.70
2022-07-26T14:15:34.776Z,19.60
2022-07-26T14:18:02.349Z,19.50
2022-07-26T14:20:29.268Z,19.60
2022-07-26T14:22:56.463Z,19.60
2022-07-26T14:25:24.001Z,19.70
2022-07-26T14:27:51.196Z,19.80
2022-07-26T14:30:18.129Z,19.80
2022-07-26T14:32:45.249Z,19.90
2022-07-26T14:35:13.571Z,19.90
2022-07-26T14:37:43.650Z,19.90
2022-07-26T14:40:15.954Z,20.00
2022-07-26T14:42:43.246Z,20.00
2022-07-26T14:45:10.638Z,20.00
2022-07-26T14:47:37.808Z,20.20
2022-07-26T14:50:07.143Z,20.20
2022-07-26T14:52:37.122Z,20.20
2022-07-26T14:55:04.316Z,20.20
2022-07-26T14:57:31.064Z,20.30
2022-07-26T14:59:59.195Z,20.50
2022-07-26T15:02:26.132Z,20.60
2022-07-26T15:04:53.020Z,20.90
2022-07-26T15:07:19.895Z,21.30
2022-07-26T15:09:46.709Z,21.60
2022-07-26T15:12:13.422Z,21.80
2022-07-26T15:14:41.221Z,21.80
2022-07-26T15:17:08.031Z,21.70
2022-07-26T15:19:35.222Z,21.20
2022-07-26T15:22:02.127Z,21.10
2022-07-26T15:24:29.137Z,21.10
2022-07-26T15:26:55.872Z,21.20
2022-07-26T15:29:22.710Z,21.20
2022-07-26T15:31:50.508Z,21.20
2022-07-26T15:34:17.340Z,21.20
2022-07-26T15:36:44.031Z,21.20
2022-07-26T15:39:18.571Z,21.30
2022-07-26T15:41:46.371Z,21.00
2022-07-26T15:44:13.531Z,21.00
2022-07-26T15:46:41.799Z,21.00
2022-07-26T15:49:10.226Z,20.90
2022-07-26T15:51:37.203Z,20.90
2022-07-26T15:54:04.784Z,20.90
2022-07-26T15:56:31.484Z,20.90
2022-07-26T15:58:58.347Z,20.90
2022-07-26T16:01:25.152Z,20.90
2022-07-26T16:03:51.935Z,20.80
2022-07-26T16:06:18.736Z,20.70
2022-07-26T16:09:14.691Z,20.70
2022-07-26T16:11:32.324Z,20.60
2022-07-26T16:14:01.190Z,20.60
2022-07-26T16:16:29.401Z,20.50
2022-07-26T16:18:56.352Z,20.40
2022-07-26T16:21:23.100Z,20.40
2022-07-26T16:23:50.961Z,20.50
2022-07-26T16:26:18.347Z,20.70
2022-07-26T16:28:45.074Z,20.80
2022-07-26T16:31:12.057Z,20.80
2022-07-26T16:33:46.096Z,20.60
2022-07-26T16:36:14.116Z,20.40
2022-07-26T16:38:40.970Z,20.30
2022-07-26T16:41:07.730Z,20.20
2022-07-26T16:43:34.670Z,20.30
2022-07-26T16:46:01.840Z,20.30
2022-07-26T16:48:28.780Z,20.50
2022-07-26T16:50:55.647Z,20.30
2022-07-26T16:53:22.471Z,20.20
2022-07-26T16:55:51.756Z,20.00
2022-07-26T16:58:18.959Z,19.80
2022-07-26T17:00:45.999Z,19.70
2022-07-26T17:03:15.990Z,19.60
2022-07-26T17:05:44.442Z,19.60
2022-07-26T17:08:33.017Z,19.60
2022-07-26T17:10:59.881Z,19.70
2022-07-26T17:13:26.642Z,19.80
2022-07-26T17:15:53.774Z,19.80
2022-07-26T17:18:20.583Z,20.10
2022-07-26T17:20:47.425Z,20.20
2022-07-26T17:23:15.304Z,20.30
2022-07-26T17:25:41.981Z,20.40
2022-07-26T17:28:08.787Z,20.40
2022-07-26T17:30:35.586Z,20.40
2022-07-26T17:33:02.342Z,20.50
2022-07-26T17:35:29.129Z,20.50
2022-07-26T17:37:56.455Z,20.50
2022-07-26T17:40:23.513Z,20.50
2022-07-26T17:42:52.677Z,20.60
2022-07-26T17:45:22.574Z,20.80
2022-07-26T17:47:49.316Z,20.80
2022-07-26T17:53:02.816Z,20.50
2022-07-26T17:55:29.598Z,20.30
2022-07-26T17:57:56.335Z,20.30
2022-07-26T18:00:23.460Z,20.00
2022-07-26T18:02:55.576Z,19.80
2022-07-26T18:05:22.484Z,19.90
2022-07-26T18:07:49.292Z,20.20
2022-07-26T18:10:16.161Z,20.50
2022-07-26T18:12:42.894Z,20.60
2022-07-26T18:15:09.923Z,20.50
2022-07-26T18:17:36.909Z,20.30
2022-07-26T18:20:04.971Z,20.30
2022-07-26T18:22:31.867Z,20.30
2022-07-26T18:24:58.621Z,20.50
2022-07-26T18:27:28.070Z,20.60
2022-07-26T18:29:55.321Z,20.50
2022-07-26T18:32:22.714Z,20.60
2022-07-26T18:34:51.549Z,20.30
2022-07-26T18:37:20.053Z,20.00
2022-07-26T18:39:46.903Z,19.60
2022-07-26T18:42:13.671Z,19.20
2022-07-26T18:44:40.603Z,19.00
2022-07-26T18:47:07.936Z,18.80
2022-07-26T18:49:35.016Z,18.50
2022-07-26T18:52:08.424Z,18.40
2022-07-26T18:54:36.114Z,18.20
2022-07-26T18:57:02.903Z,18.10
2022-07-26T18:59:30.937Z,17.90
2022-07-26T19:01:59.585Z,17.80
2022-07-26T19:04:26.976Z,17.70
2022-07-26T19:06:53.816Z,17.50
2022-07-26T19:09:20.561Z,17.30
2022-07-26T19:11:47.745Z,17.30
2022-07-26T19:14:14.616Z,17.20
2022-07-26T19:16:41.363Z,17.10
2022-07-26T19:19:08.091Z,17.00
2022-07-26T19:21:34.906Z,16.90
2022-07-26T19:24:01.687Z,16.90
2022-07-26T19:26:29.109Z,16.70
2022-07-26T19:28:55.873Z,16.60
2022-07-26T19:31:22.742Z,16.50
2022-07-26T19:33:49.838Z,16.50
2022-07-26T19:36:25.557Z,16.40
2022-07-26T19:38:53.587Z,16.40
2022-07-26T19:41:20.396Z,16.30
2022-07-26T19:43:47.143Z,16.10
2022-07-26T19:46:14.087Z,16.10
2022-07-26T19:48:41.046Z,16.20
2022-07-26T19:51:07.893Z,16.10
2022-07-26T19:53:34.612Z,16.20
2022-07-26T19:56:01.663Z,16.00
2022-07-26T19:58:30.344Z,15.90
2022-07-26T20:00:57.211Z,15.90
2022-07-26T20:03:23.890Z,15.90
2022-07-26T20:05:50.646Z,15.90
2022-07-26T20:08:17.465Z,15.80
2022-07-26T20:10:44.415Z,15.70
2022-07-26T20:13:11.150Z,15.70
2022-07-26T20:15:37.888Z,15.60
2022-07-26T20:18:04.788Z,15.60
2022-07-26T20:20:31.694Z,15.60
2022-07-26T20:22:58.587Z,15.60
2022-07-26T20:25:25.414Z,15.50
2022-07-26T20:27:52.886Z,15.50
2022-07-26T20:30:19.904Z,15.50
2022-07-26T20:32:46.632Z,15.40
2022-07-26T20:35:13.437Z,15.30
2022-07-26T20:37:41.573Z,15.40
2022-07-26T20:40:09.278Z,15.30
2022-07-26T20:42:36.396Z,15.20
2022-07-26T20:45:05.999Z,15.30
2022-07-26T20:47:40.293Z,15.30
2022-07-26T20:50:10.872Z,15.20
2022-07-26T20:52:37.688Z,15.10
2022-07-26T20:55:04.568Z,15.10
2022-07-26T20:57:31.340Z,15.00
2022-07-26T20:59:58.045Z,15.10
2022-07-26T21:02:25.029Z,15.10
2022-07-26T21:04:51.895Z,15.20
2022-07-26T21:07:18.748Z,15.10
2022-07-26T21:09:45.436Z,15.00
2022-07-26T21:12:12.197Z,15.00
2022-07-26T21:14:39.289Z,15.00
2022-07-26T21:17:11.286Z,14.90
2022-07-26T21:19:38.579Z,14.90
2022-07-26T21:22:06.849Z,14.90
2022-07-26T21:24:35.009Z,14.90
2022-07-26T21:27:02.207Z,15.00
2022-07-26T21:29:29.067Z,15.10
2022-07-26T21:31:55.841Z,14.80
2022-07-26T21:34:24.869Z,14.60
2022-07-26T21:36:52.041Z,14.40
2022-07-26T21:39:18.908Z,14.20
2022-07-26T21:41:45.805Z,14.10
2022-07-26T21:44:12.670Z,14.00
2022-07-26T21:46:39.473Z,14.10
2022-07-26T21:49:06.439Z,14.20
2022-07-26T21:51:33.305Z,14.10
2022-07-26T21:54:00.007Z,14.10
2022-07-26T21:56:28.528Z,14.10
2022-07-26T21:58:55.564Z,14.30
2022-07-26T22:01:22.478Z,14.30
2022-07-26T22:03:49.250Z,14.30
2022-07-26T22:06:16.837Z,14.20
2022-07-26T22:08:43.921Z,14.20
2022-07-26T22:11:10.788Z,14.30
2022-07-26T22:13:38.707Z,14.30
2022-07-26T22:16:06.421Z,14.20
2022-07-26T22:18:33.192Z,14.10
2022-07-26T22:21:01.017Z,14.20
2022-07-26T22:23:30.444Z,14.30
2022-07-26T22:25:58.172Z,14.30
2022-07-26T22:28:25.119Z,14.20
2022-07-26T22:30:51.974Z,14.20
2022-07-26T22:33:19.364Z,14.10
2022-07-26T22:35:46.122Z,14.20
2022-07-26T22:38:12.950Z,14.20
2022-07-26T22:40:40.458Z,14.20
2022-07-26T22:43:07.602Z,14.10
2022-07-26T22:45:34.764Z,14.10
2022-07-26T22:48:02.524Z,14.10
2022-07-26T22:50:29.338Z,14.00
2022-07-26T22:52:56.119Z,14.00
2022-07-26T22:55:23.411Z,14.00
2022-07-26T22:57:50.159Z,14.00
2022-07-26T23:00:17.961Z,13.90
2022-07-26T23:02:45.161Z,13.80
2022-07-26T23:05:14.154Z,13.70
2022-07-26T23:07:40.952Z,13.70
2022-07-26T23:10:10.848Z,13.70
2022-07-26T23:12:38.136Z,13.70
2022-07-26T23:15:05.835Z,13.70
2022-07-26T23:17:32.598Z,13.70
2022-07-26T23:19:59.315Z,13.60
2022-07-26T23:22:26.014Z,13.60
2022-07-26T23:24:52.932Z,13.60
2022-07-26T23:27:20.353Z,13.60
2022-07-26T23:29:49.046Z,13.60
2022-07-26T23:32:15.911Z,13.60
2022-07-26T23:34:42.739Z,13.50
2022-07-26T23:37:09.468Z,13.40
2022-07-26T23:39:36.364Z,13.30
2022-07-26T23:42:03.414Z,13.20
2022-07-26T23:44:30.691Z,13.20
2022-07-26T23:46:58.270Z,13.20
2022-07-26T23:49:25.207Z,13.20
2022-07-26T23:51:51.951Z,13.20
2022-07-26T23:54:18.733Z,13.20
2022-07-26T23:56:45.627Z,13.20
2022-07-26T23:59:13.049Z,13.20
